Time;durP1;ratioP1;P1;durP2;ratioP2;P2;SDS_P1;SDS_P2;PMS_P1;PMS_P2;Temp;Humidity;BMP_temperature;BMP_pressure;BME280_temperature;BME280_humidity;BME280_pressure;Samples;Min_cycle;Max_cycle;Signal;HPM_P1;HPM_P2
2022/04/09 00:00:38;;;;;;;1.20;1.20;;;-0.50;99.90;;;;;;6261963;28;20455;-85
2022/04/09 00:03:45;;;;;;;1.20;1.20;;;-0.40;99.90;;;;;;6260037;28;20577;-85
2022/04/09 00:06:50;;;;;;;1.30;1.30;;;-0.40;99.90;;;;;;6261949;28;20592;-84
2022/04/09 00:09:55;;;;;;;1.40;1.40;;;-0.50;99.90;;;;;;6263682;28;20296;-85
2022/04/09 00:13:01;;;;;;;1.23;1.23;;;-0.50;99.90;;;;;;6284718;28;20599;-85
2022/04/09 00:16:06;;;;;;;1.30;1.30;;;-0.50;99.90;;;;;;6285234;28;20436;-85
2022/04/09 00:19:13;;;;;;;1.30;1.30;;;-0.50;99.90;;;;;;6285990;28;20300;-85
2022/04/09 00:22:19;;;;;;;1.30;1.30;;;-0.60;99.90;;;;;;6285639;28;20544;-84
2022/04/09 00:25:24;;;;;;;1.20;1.20;;;-0.50;99.90;;;;;;6235588;28;20278;-84
2022/04/09 00:28:30;;;;;;;1.10;1.10;;;-0.60;99.90;;;;;;6235423;28;20302;-84
2022/04/09 00:31:35;;;;;;;1.20;1.20;;;-0.60;99.90;;;;;;6236941;28;20257;-85
2022/04/09 00:34:43;;;;;;;1.50;1.50;;;-0.60;99.90;;;;;;6251532;28;20302;-85
2022/04/09 00:37:49;;;;;;;1.20;1.20;;;-0.60;99.90;;;;;;6235348;28;20289;-85
2022/04/09 00:40:54;;;;;;;1.30;1.30;;;-0.60;99.90;;;;;;6252429;28;20279;-84
2022/04/09 00:44:00;;;;;;;1.20;1.20;;;-0.70;99.90;;;;;;6236455;28;20339;-84
2022/04/09 00:47:06;;;;;;;1.30;1.30;;;-0.70;99.90;;;;;;6236379;28;20294;-84
2022/04/09 00:50:15;;;;;;;1.53;1.43;;;-0.70;99.90;;;;;;6250546;28;20279;-84
2022/04/09 00:53:22;;;;;;;1.20;1.20;;;-0.70;99.90;;;;;;6235066;28;20301;-84
2022/04/09 00:56:28;;;;;;;1.70;1.13;;;-0.70;99.90;;;;;;6235389;28;20557;-84
2022/04/09 00:59:37;;;;;;;1.40;1.40;;;-0.70;99.90;;;;;;6251205;28;20310;-84
2022/04/09 01:02:45;;;;;;;1.20;1.20;;;-0.70;99.90;;;;;;6234893;28;20289;-84
2022/04/09 01:05:52;;;;;;;1.30;1.30;;;-0.70;99.90;;;;;;6235537;28;20275;-84
2022/04/09 01:08:58;;;;;;;1.20;1.20;;;-0.70;99.90;;;;;;6234602;28;20309;-84
2022/04/09 01:12:06;;;;;;;1.30;1.30;;;-0.70;99.90;;;;;;6235415;28;20270;-84
2022/04/09 01:15:12;;;;;;;1.20;1.20;;;-0.70;99.90;;;;;;6234380;28;20278;-85
2022/04/09 01:18:19;;;;;;;1.20;1.20;;;-0.70;99.90;;;;;;6251169;28;20301;-84
2022/04/09 01:21:35;;;;;;;1.13;1.13;;;-0.70;99.90;;;;;;6251617;28;20273;-84
2022/04/09 01:24:43;;;;;;;1.23;1.23;;;-0.70;99.90;;;;;;6288141;28;20314;-85
2022/04/09 01:27:49;;;;;;;1.30;1.30;;;-0.70;99.90;;;;;;6283577;28;20296;-85
2022/04/09 01:30:55;;;;;;;1.33;1.33;;;-0.70;99.90;;;;;;6284225;28;20272;-85
2022/04/09 01:34:00;;;;;;;1.27;1.27;;;-0.70;99.90;;;;;;6283417;28;20309;-85
2022/04/09 01:37:07;;;;;;;1.63;1.20;;;-0.70;99.90;;;;;;6283634;28;20274;-84
2022/04/09 01:40:16;;;;;;;1.10;1.10;;;-0.70;99.90;;;;;;6304653;28;20666;-85
2022/04/09 01:43:25;;;;;;;1.17;1.17;;;-0.70;99.90;;;;;;6287981;28;20482;-85
2022/04/09 01:46:31;;;;;;;1.30;1.30;;;-0.80;99.90;;;;;;6288438;28;20273;-85
2022/04/09 01:49:37;;;;;;;5.23;1.40;;;-0.80;99.90;;;;;;6287556;28;20299;-85
2022/04/09 01:52:44;;;;;;;1.17;1.17;;;-0.80;99.90;;;;;;6288459;28;20288;-85
2022/04/09 01:55:53;;;;;;;1.20;1.20;;;-0.80;99.90;;;;;;6289980;28;20323;-84
2022/04/09 01:59:01;;;;;;;1.27;1.27;;;-0.80;99.90;;;;;;6287860;28;20307;-85
2022/04/09 02:02:10;;;;;;;1.20;1.20;;;-0.80;99.90;;;;;;6287304;28;20412;-84
2022/04/09 02:05:16;;;;;;;1.40;1.30;;;-0.80;99.90;;;;;;6288320;28;20277;-84
2022/04/09 02:08:25;;;;;;;1.73;1.47;;;-0.90;99.90;;;;;;6287613;28;20299;-84
2022/04/09 02:11:31;;;;;;;1.27;1.27;;;-0.80;99.90;;;;;;6289357;28;20268;-84
2022/04/09 02:14:37;;;;;;;1.20;1.20;;;-0.90;99.90;;;;;;6287458;28;20494;-84
2022/04/09 02:17:43;;;;;;;1.20;1.20;;;-0.90;99.90;;;;;;6287485;28;20417;-83
2022/04/09 02:20:52;;;;;;;1.10;1.10;;;-0.90;99.90;;;;;;6287796;28;20279;-84
2022/04/09 02:23:58;;;;;;;1.10;1.10;;;-0.90;99.90;;;;;;6286953;28;20590;-84
2022/04/09 02:27:06;;;;;;;1.27;1.27;;;-0.90;99.90;;;;;;6287724;28;20324;-84
2022/04/09 02:30:13;;;;;;;1.27;1.27;;;-1.10;99.90;;;;;;6287801;28;20300;-84
2022/04/09 02:33:24;;;;;;;1.40;1.40;;;-1.10;99.90;;;;;;6286956;28;20295;-84
2022/04/09 02:36:32;;;;;;;1.30;1.30;;;-1.10;99.90;;;;;;6287578;28;20268;-84
2022/04/09 02:39:37;;;;;;;1.33;1.33;;;-1.00;99.90;;;;;;6286893;28;20297;-85
2022/04/09 02:42:44;;;;;;;1.40;1.40;;;-1.00;99.90;;;;;;6286899;28;20291;-84
2022/04/09 02:45:50;;;;;;;2.00;1.50;;;-1.00;99.90;;;;;;6287228;28;20272;-84
2022/04/09 02:48:57;;;;;;;1.20;1.20;;;-1.10;99.90;;;;;;6286527;28;20604;-84
2022/04/09 02:52:02;;;;;;;1.17;1.17;;;-1.10;99.90;;;;;;6286847;28;20277;-84
2022/04/09 02:55:09;;;;;;;1.50;1.43;;;-1.10;99.90;;;;;;6286346;28;20275;-84
2022/04/09 02:58:16;;;;;;;1.40;1.40;;;-1.10;99.90;;;;;;6287980;28;20297;-84
2022/04/09 03:01:27;;;;;;;1.30;1.30;;;-1.00;99.90;;;;;;6278582;28;20576;-84
2022/04/09 03:04:35;;;;;;;1.30;1.30;;;-1.10;99.90;;;;;;6272644;28;20304;-84
2022/04/09 03:07:40;;;;;;;1.27;1.27;;;-1.10;99.90;;;;;;6286625;28;20299;-84
2022/04/09 03:10:46;;;;;;;1.60;1.60;;;-1.10;99.90;;;;;;6286975;28;20284;-84
2022/04/09 03:13:53;;;;;;;1.50;1.50;;;-1.10;99.90;;;;;;6286378;28;20573;-84
2022/04/09 03:16:59;;;;;;;1.40;1.40;;;-1.10;99.90;;;;;;6285762;28;20276;-84
2022/04/09 03:20:06;;;;;;;1.40;1.40;;;-1.10;99.90;;;;;;6286568;28;20267;-85
2022/04/09 03:23:14;;;;;;;1.30;1.30;;;-1.10;99.90;;;;;;6285661;28;20594;-85
2022/04/09 03:26:30;;;;;;;1.40;1.40;;;-1.10;99.90;;;;;;6285940;28;20272;-84
2022/04/09 03:29:39;;;;;;;1.30;1.30;;;-1.10;99.90;;;;;;6285504;28;20300;-84
2022/04/09 03:32:45;;;;;;;1.60;1.50;;;-1.10;99.90;;;;;;6302467;28;20297;-84
2022/04/09 03:35:56;;;;;;;1.47;1.47;;;-1.10;99.90;;;;;;6286476;28;20302;-84
2022/04/09 03:39:07;;;;;;;1.30;1.30;;;-1.10;99.90;;;;;;6285379;28;20473;-84
2022/04/09 03:42:14;;;;;;;1.40;1.40;;;-1.10;99.90;;;;;;6285598;28;20310;-84
2022/04/09 03:45:31;;;;;;;1.30;1.20;;;-1.10;99.90;;;;;;6286138;28;20580;-83
2022/04/09 03:48:39;;;;;;;1.67;1.50;;;-1.10;99.90;;;;;;6285493;28;20300;-84
2022/04/09 03:51:45;;;;;;;1.37;1.37;;;-1.10;99.90;;;;;;6283744;28;20398;-84
2022/04/09 03:54:53;;;;;;;1.40;1.40;;;-1.10;99.90;;;;;;6285151;28;20322;-84
2022/04/09 03:58:00;;;;;;;1.70;1.70;;;-1.10;99.90;;;;;;6285268;28;20300;-85
2022/04/09 04:01:07;;;;;;;1.30;1.30;;;-1.10;99.90;;;;;;6285506;28;20275;-84
2022/04/09 04:04:15;;;;;;;1.40;1.40;;;-1.00;99.90;;;;;;6284419;28;20313;-84
2022/04/09 04:07:24;;;;;;;1.57;1.57;;;-1.10;99.90;;;;;;6284750;28;20478;-84
2022/04/09 04:10:30;;;;;;;1.47;1.47;;;-1.10;99.90;;;;;;6275981;28;20304;-84
2022/04/09 04:13:48;;;;;;;1.20;1.20;;;-1.10;99.90;;;;;;6260599;28;20300;-84
2022/04/09 04:16:55;;;;;;;1.90;1.47;;;-1.10;99.90;;;;;;6260505;28;20276;-84
2022/04/09 04:20:02;;;;;;;1.37;1.37;;;-1.10;99.90;;;;;;6259845;28;20284;-84
2022/04/09 04:23:09;;;;;;;1.60;1.50;;;-1.00;99.90;;;;;;6259364;28;20324;-84
2022/04/09 04:26:15;;;;;;;1.40;1.40;;;-1.00;99.90;;;;;;6244242;28;20273;-84
2022/04/09 04:29:29;;;;;;;1.20;1.20;;;-1.00;99.90;;;;;;6259596;28;20292;-84
2022/04/09 04:32:36;;;;;;;1.30;1.30;;;-1.00;99.90;;;;;;6260013;28;20292;-84
2022/04/09 04:35:44;;;;;;;1.40;1.40;;;-1.00;99.90;;;;;;6260024;28;20272;-84
2022/04/09 04:38:50;;;;;;;1.60;1.60;;;-1.00;99.90;;;;;;6261286;28;20299;-84
2022/04/09 04:41:56;;;;;;;1.40;1.40;;;-1.00;99.90;;;;;;6260841;28;20278;-83
2022/04/09 04:45:02;;;;;;;2.70;1.50;;;-0.90;99.90;;;;;;6259694;28;20558;-84
2022/04/09 04:48:14;;;;;;;3.20;1.40;;;-0.90;99.90;;;;;;6259778;28;20300;-84
2022/04/09 04:51:26;;;;;;;1.20;1.20;;;-0.80;99.90;;;;;;6259892;28;20295;-84
2022/04/09 04:54:32;;;;;;;1.20;1.20;;;-0.80;99.90;;;;;;6259254;28;20303;-84
2022/04/09 04:57:42;;;;;;;1.63;1.53;;;-0.80;99.90;;;;;;6259486;28;20545;-84
2022/04/09 05:00:48;;;;;;;1.40;1.40;;;-0.80;99.90;;;;;;6259875;28;20272;-84
2022/04/09 05:03:57;;;;;;;1.20;1.20;;;-0.70;99.90;;;;;;6258991;28;20467;-84
2022/04/09 05:07:06;;;;;;;1.63;1.30;;;-0.60;99.90;;;;;;6259322;28;20278;-85
2022/04/09 05:10:14;;;;;;;1.40;1.20;;;-0.70;99.90;;;;;;6266488;28;20301;-84
2022/04/09 05:13:20;;;;;;;1.30;1.30;;;-0.60;99.90;;;;;;6284561;28;20296;-84
2022/04/09 05:16:26;;;;;;;1.30;1.30;;;-0.60;99.90;;;;;;6289355;28;20276;-84
2022/04/09 05:19:41;;;;;;;2.17;1.30;;;-0.50;99.90;;;;;;6288146;28;20296;-84
2022/04/09 05:22:50;;;;;;;1.20;1.20;;;-0.50;99.90;;;;;;6288388;28;20303;-84
2022/04/09 05:25:56;;;;;;;2.23;1.20;;;-0.40;99.90;;;;;;6289175;28;20278;-83
2022/04/09 05:29:01;;;;;;;1.20;1.20;;;-0.40;99.90;;;;;;6288426;28;20599;-84
2022/04/09 05:32:08;;;;;;;1.30;1.30;;;-0.30;99.90;;;;;;6288368;28;20596;-85
2022/04/09 05:35:18;;;;;;;1.40;1.40;;;-0.30;99.90;;;;;;6288597;28;20276;-84
2022/04/09 05:38:28;;;;;;;1.33;1.33;;;-0.20;99.90;;;;;;6288442;28;20302;-84
2022/04/09 05:41:35;;;;;;;1.30;1.30;;;-0.20;99.90;;;;;;6288742;28;20277;-84
2022/04/09 05:44:42;;;;;;;1.20;1.20;;;-0.20;99.90;;;;;;6288205;28;20301;-85
2022/04/09 05:47:48;;;;;;;1.30;1.30;;;-0.10;99.90;;;;;;6288049;28;20296;-84
2022/04/09 05:51:01;;;;;;;1.40;1.40;;;0.00;99.90;;;;;;6288690;28;20604;-85
2022/04/09 05:54:12;;;;;;;1.30;1.30;;;0.00;99.90;;;;;;6287662;28;20300;-85
2022/04/09 05:57:21;;;;;;;1.30;1.30;;;0.10;99.90;;;;;;6287691;28;20297;-84
2022/04/09 06:00:27;;;;;;;1.90;1.20;;;0.10;99.90;;;;;;6288395;28;20303;-84
2022/04/09 06:03:45;;;;;;;1.23;1.23;;;0.10;99.90;;;;;;6287554;28;20480;-85
2022/04/09 06:06:52;;;;;;;1.20;1.20;;;0.20;99.90;;;;;;6289550;28;20280;-85
2022/04/09 06:10:03;;;;;;;1.43;1.30;;;0.30;99.90;;;;;;6281905;28;20290;-84
2022/04/09 06:13:12;;;;;;;1.20;1.20;;;0.40;99.90;;;;;;6263214;28;20332;-84
2022/04/09 06:16:18;;;;;;;1.20;1.20;;;0.50;99.90;;;;;;6263283;28;20278;-84
2022/04/09 06:19:31;;;;;;;1.10;1.10;;;0.50;99.90;;;;;;6262165;28;20302;-85
2022/04/09 06:22:38;;;;;;;1.20;1.20;;;0.60;99.90;;;;;;6262467;28;20298;-85
2022/04/09 06:25:44;;;;;;;1.20;1.20;;;0.70;99.90;;;;;;6262245;28;20280;-85
2022/04/09 06:28:53;;;;;;;1.10;1.10;;;0.70;99.90;;;;;;6262353;28;20546;-84
2022/04/09 06:31:58;;;;;;;1.10;1.10;;;0.80;99.90;;;;;;6262119;28;20467;-85
2022/04/09 06:35:06;;;;;;;1.20;1.20;;;0.90;99.90;;;;;;6262682;28;20578;-84
2022/04/09 06:38:20;;;;;;;1.10;1.10;;;0.90;99.90;;;;;;6262698;28;20299;-85
2022/04/09 06:41:25;;;;;;;1.20;1.20;;;0.90;99.90;;;;;;6263026;28;20279;-85
2022/04/09 06:44:32;;;;;;;1.13;1.13;;;1.00;99.90;;;;;;6262100;28;20303;-86
2022/04/09 06:47:48;;;;;;;1.13;1.13;;;1.00;99.90;;;;;;6247796;28;20477;-86
2022/04/09 06:50:55;;;;;;;1.17;1.17;;;1.00;99.90;;;;;;6262404;28;20279;-85
2022/04/09 06:54:01;;;;;;;1.10;1.10;;;1.50;99.90;;;;;;6262354;28;20467;-85
2022/04/09 06:57:07;;;;;;;1.20;1.13;;;1.90;99.90;;;;;;6262469;28;20583;-85
2022/04/09 07:00:19;;;;;;;1.10;1.10;;;2.00;99.90;;;;;;6262022;28;20275;-86
2022/04/09 07:03:25;;;;;;;1.30;1.30;;;2.00;99.90;;;;;;6261847;28;20419;-85
2022/04/09 07:06:31;;;;;;;1.20;1.10;;;2.20;99.90;;;;;;6262966;28;20275;-86
2022/04/09 07:09:39;;;;;;;1.10;1.10;;;2.20;99.90;;;;;;6263529;28;20298;-85
2022/04/09 07:12:44;;;;;;;1.03;1.03;;;2.30;99.90;;;;;;6269815;28;20299;-85
2022/04/09 07:15:50;;;;;;;1.00;1.00;;;2.50;99.90;;;;;;6286335;28;20275;-86
2022/04/09 07:18:55;;;;;;;1.03;1.03;;;2.60;99.90;;;;;;6285978;28;20314;-86
2022/04/09 07:22:01;;;;;;;3.80;1.20;;;2.80;99.90;;;;;;6270329;28;20290;-86
2022/04/09 07:25:10;;;;;;;1.00;1.00;;;2.90;99.90;;;;;;6289427;28;20472;-86
2022/04/09 07:28:18;;;;;;;0.90;0.90;;;3.00;99.90;;;;;;6288668;28;20298;-85
2022/04/09 07:31:23;;;;;;;0.90;0.90;;;3.00;99.90;;;;;;6287814;28;20268;-85
2022/04/09 07:34:29;;;;;;;0.93;0.93;;;3.00;99.90;;;;;;6286528;28;20308;-86
2022/04/09 07:37:34;;;;;;;1.10;1.10;;;3.00;99.90;;;;;;6285483;28;20585;-87
2022/04/09 07:40:41;;;;;;;1.63;1.07;;;3.00;99.90;;;;;;6286195;28;20270;-87
2022/04/09 07:43:46;;;;;;;1.13;1.13;;;2.90;99.90;;;;;;6286873;28;20301;-86
2022/04/09 07:46:51;;;;;;;1.00;1.00;;;2.70;99.90;;;;;;6287353;28;20271;-86
2022/04/09 07:49:57;;;;;;;1.00;1.00;;;2.80;99.90;;;;;;6286241;28;20294;-85
2022/04/09 07:53:03;;;;;;;1.00;1.00;;;2.70;99.90;;;;;;6286364;28;20299;-86
2022/04/09 07:56:10;;;;;;;1.10;1.10;;;3.00;99.90;;;;;;6286666;28;20279;-86
2022/04/09 07:59:15;;;;;;;1.10;1.10;;;3.20;99.90;;;;;;6268340;28;20531;-85
2022/04/09 08:02:21;;;;;;;1.00;1.00;;;3.30;99.90;;;;;;6285204;28;20286;-83
2022/04/09 08:05:26;;;;;;;1.10;1.10;;;3.40;99.90;;;;;;6286904;28;20268;-85
2022/04/09 08:08:31;;;;;;;1.10;1.00;;;3.40;99.90;;;;;;6285867;28;20295;-82
2022/04/09 08:11:38;;;;;;;1.10;1.10;;;3.30;99.90;;;;;;6285101;28;20417;-83
2022/04/09 08:14:43;;;;;;;1.00;1.00;;;3.30;99.90;;;;;;6286106;28;20302;-87
2022/04/09 08:17:48;;;;;;;0.90;0.90;;;3.20;99.90;;;;;;6285977;28;20293;-84
2022/04/09 08:20:54;;;;;;;0.93;0.93;;;3.30;99.90;;;;;;6286404;28;20277;-84
2022/04/09 08:24:00;;;;;;;1.30;1.20;;;3.70;99.90;;;;;;6285149;28;20310;-83
2022/04/09 08:27:08;;;;;;;1.37;1.07;;;3.60;99.90;;;;;;6283950;28;20449;-82
2022/04/09 08:30:15;;;;;;;1.10;1.10;;;3.30;99.90;;;;;;6286244;28;20271;-84
2022/04/09 08:33:20;;;;;;;1.70;0.90;;;3.50;99.90;;;;;;6285401;28;20289;-84
2022/04/09 08:36:25;;;;;;;1.10;1.10;;;3.50;99.90;;;;;;6284462;28;20271;-85
2022/04/09 08:39:31;;;;;;;1.80;0.93;;;3.40;99.90;;;;;;6285313;28;20297;-84
2022/04/09 08:42:38;;;;;;;1.00;1.00;;;3.50;99.90;;;;;;6283745;28;20305;-84
2022/04/09 08:45:43;;;;;;;1.10;1.10;;;3.50;99.90;;;;;;6285839;28;20278;-84
2022/04/09 08:48:49;;;;;;;0.80;0.80;;;3.60;99.90;;;;;;6284938;28;20298;-83
2022/04/09 08:51:55;;;;;;;0.97;0.97;;;3.40;99.90;;;;;;6285783;28;20294;-84
2022/04/09 08:55:01;;;;;;;1.00;1.00;;;3.50;99.90;;;;;;6283559;28;20303;-84
2022/04/09 08:58:08;;;;;;;0.90;0.90;;;3.40;99.90;;;;;;6285118;28;20587;-84
2022/04/09 09:01:14;;;;;;;1.00;1.00;;;3.50;99.90;;;;;;6285417;28;20275;-84
2022/04/09 09:04:19;;;;;;;1.10;1.00;;;3.50;99.90;;;;;;6285224;28;20297;-83
2022/04/09 09:07:26;;;;;;;1.00;1.00;;;3.50;99.90;;;;;;6271763;23;20595;-91
2022/04/09 09:10:34;;;;;;;3.03;1.13;;;3.60;99.90;;;;;;6141766;28;20266;-90
2022/04/09 09:13:52;;;;;;;0.90;0.90;;;3.70;99.90;;;;;;6140291;29;20316;-91
2022/04/09 09:17:02;;;;;;;1.70;1.00;;;4.00;99.90;;;;;;6170447;28;20285;-90
2022/04/09 09:20:15;;;;;;;1.10;1.10;;;4.00;99.90;;;;;;6141850;28;20549;-90
2022/04/09 09:23:23;;;;;;;0.90;0.90;;;3.90;99.90;;;;;;6140329;28;20296;-89
2022/04/09 09:26:29;;;;;;;3.73;1.00;;;3.80;99.90;;;;;;6168781;28;20277;-90
2022/04/09 09:29:39;;;;;;;0.97;0.97;;;3.80;99.90;;;;;;6132837;29;20304;-91
2022/04/09 09:33:07;;;;;;;1.20;1.20;;;3.90;99.90;;;;;;6168246;28;20271;-91
2022/04/09 09:36:36;;;;;;;2.20;1.10;;;3.70;99.90;;;;;;6173953;28;20282;-89
2022/04/09 09:39:45;;;;;;;1.20;1.20;;;3.60;99.90;;;;;;6148963;28;20266;-90
2022/04/09 09:43:16;;;;;;;0.97;0.97;;;3.60;99.90;;;;;;6133112;28;20219;-91
2022/04/09 09:46:28;;;;;;;1.03;1.03;;;3.50;99.90;;;;;;6157532;29;20269;-91
2022/04/09 09:49:40;;;;;;;1.00;1.00;;;3.40;99.90;;;;;;6154412;29;20315;-91
2022/04/09 09:52:47;;;;;;;2.20;1.10;;;3.50;99.90;;;;;;6148297;28;20550;-91
2022/04/09 09:55:53;;;;;;;1.00;1.00;;;3.40;99.90;;;;;;6148457;28;20294;-92
2022/04/09 09:59:01;;;;;;;1.13;1.13;;;3.50;99.90;;;;;;6144611;28;20300;-92
2022/04/09 10:02:09;;;;;;;1.30;1.30;;;3.40;99.90;;;;;;6151575;28;20276;-90
2022/04/09 10:05:17;;;;;;;2.00;1.10;;;3.40;99.90;;;;;;6184915;28;20293;-91
2022/04/09 10:08:22;;;;;;;1.10;1.10;;;3.50;99.90;;;;;;6196676;28;20313;-91
2022/04/09 10:11:42;;;;;;;1.37;1.37;;;3.50;99.90;;;;;;6202166;28;20278;-93
2022/04/09 10:15:29;;;;;;;1.03;1.03;;;3.30;99.90;;;;;;6200593;28;20298;-91
2022/04/09 10:18:39;;;;;;;2.47;1.43;;;3.40;99.90;;;;;;6198830;28;20308;-92
2022/04/09 10:21:46;;;;;;;1.60;1.60;;;3.10;99.90;;;;;;6168802;28;20276;-92
2022/04/09 10:24:55;;;;;;;1.13;1.13;;;3.20;99.90;;;;;;6198381;28;20296;-90
2022/04/09 10:28:08;;;;;;;1.20;1.20;;;3.30;99.90;;;;;;6169732;28;20305;-92
2022/04/09 10:31:35;;;;;;;1.20;1.20;;;3.40;99.90;;;;;;6216296;28;20280;-91
2022/04/09 10:34:55;;;;;;;1.17;1.17;;;3.40;99.90;;;;;;6199122;28;20404;-92
2022/04/09 10:38:24;;;;;;;1.60;1.40;;;3.50;99.90;;;;;;6199473;28;20293;-89
2022/04/09 10:41:30;;;;;;;1.60;1.50;;;3.70;99.90;;;;;;6198586;28;20299;-90
2022/04/09 10:44:54;;;;;;;1.37;1.37;;;3.50;99.90;;;;;;6182726;28;20316;-89
2022/04/09 10:48:10;;;;;;;1.50;1.50;;;3.50;99.90;;;;;;6167681;28;20294;-91
2022/04/09 10:51:18;;;;;;;1.60;1.60;;;3.60;99.90;;;;;;6199483;28;20272;-90
2022/04/09 10:54:26;;;;;;;1.33;1.20;;;3.60;99.90;;;;;;6182219;28;20604;-89
2022/04/09 10:57:43;;;;;;;2.73;1.50;;;3.40;99.90;;;;;;6152826;28;20309;-91
2022/04/09 11:00:50;;;;;;;2.03;1.30;;;3.20;99.90;;;;;;6214675;28;20279;-91
2022/04/09 11:03:56;;;;;;;1.27;1.27;;;3.20;99.90;;;;;;6197113;28;20304;-90
2022/04/09 11:07:05;;;;;;;1.63;1.33;;;3.40;99.90;;;;;;6182380;28;20310;-92
2022/04/09 11:10:34;;;;;;;1.40;1.40;;;3.40;99.90;;;;;;6199122;28;20308;-91
2022/04/09 11:14:34;;;;;;;1.40;1.30;;;3.30;99.90;;;;;;6136479;28;20492;-92
2022/04/09 11:21:14;;;;;;;1.27;1.13;;;3.30;99.90;;;;;;6201454;28;20281;-91
2022/04/09 11:24:21;;;;;;;1.60;1.50;;;3.50;99.90;;;;;;6198470;28;20300;-92
2022/04/09 11:27:28;;;;;;;1.87;1.87;;;3.50;99.90;;;;;;6198263;28;20293;-92
2022/04/09 11:30:35;;;;;;;1.57;1.33;;;3.60;99.90;;;;;;6203854;28;20280;-90
2022/04/09 11:33:57;;;;;;;1.40;1.40;;;3.60;99.90;;;;;;6212342;28;20261;-90
2022/04/09 11:37:13;;;;;;;1.50;1.50;;;3.50;99.90;;;;;;6213733;28;20259;-91
2022/04/09 11:40:22;;;;;;;1.47;1.40;;;3.50;99.90;;;;;;6199127;28;20253;-92
2022/04/09 11:43:28;;;;;;;1.53;1.53;;;3.40;99.90;;;;;;6200764;28;20307;-90
2022/04/09 11:46:45;;;;;;;1.50;1.50;;;3.60;99.90;;;;;;6214176;28;20234;-91
2022/04/09 11:49:52;;;;;;;1.67;1.47;;;3.40;99.90;;;;;;6212111;28;20243;-91
2022/04/09 11:53:09;;;;;;;1.30;1.30;;;3.50;99.90;;;;;;6203149;28;20297;-91
2022/04/09 11:56:15;;;;;;;1.60;1.60;;;3.60;99.90;;;;;;6201263;28;20290;-91
2022/04/09 11:59:21;;;;;;;2.00;1.50;;;3.70;99.90;;;;;;6182239;28;20302;-90
2022/04/09 12:02:29;;;;;;;1.13;1.13;;;3.40;99.90;;;;;;6199023;28;20277;-91
2022/04/09 12:05:41;;;;;;;1.20;1.20;;;3.40;99.90;;;;;;6197161;28;20286;-91
2022/04/09 12:08:48;;;;;;;1.37;1.37;;;3.40;99.90;;;;;;6213435;28;20306;-92
2022/04/09 12:11:54;;;;;;;2.10;1.10;;;3.40;99.90;;;;;;6198592;28;20282;-91
2022/04/09 12:15:00;;;;;;;1.20;1.20;;;3.50;99.90;;;;;;6197587;28;20294;-91
2022/04/09 12:18:27;;;;;;;1.20;1.20;;;3.60;99.90;;;;;;6182153;28;20569;-91
2022/04/09 12:21:35;;;;;;;1.20;1.20;;;3.70;99.90;;;;;;6199539;28;20286;-91
2022/04/09 12:24:56;;;;;;;1.10;1.10;;;3.70;99.90;;;;;;6199710;28;20307;-91
2022/04/09 12:28:03;;;;;;;1.20;1.20;;;3.70;99.90;;;;;;6165904;28;20296;-92
2022/04/09 12:31:25;;;;;;;1.30;1.20;;;3.80;99.90;;;;;;6172804;28;20273;-92
2022/04/09 12:34:53;;;;;;;1.40;1.40;;;3.90;99.90;;;;;;6157140;28;20482;-92
2022/04/09 12:38:00;;;;;;;1.20;1.20;;;4.00;99.90;;;;;;6189878;28;20303;-91
2022/04/09 12:41:07;;;;;;;1.17;1.17;;;4.20;99.90;;;;;;6173703;28;20285;-92
2022/04/09 12:44:26;;;;;;;2.00;1.17;;;4.20;99.90;;;;;;6173363;28;20305;-94
2022/04/09 12:50:56;;;;;;;1.10;1.10;;;4.00;99.90;;;;;;6147371;28;20275;-92
2022/04/09 12:54:03;;;;;;;1.57;1.10;;;4.20;99.90;;;;;;6173134;28;20297;-92
2022/04/09 12:57:13;;;;;;;1.10;1.10;;;4.20;99.90;;;;;;6142533;28;20290;-92
2022/04/09 13:00:24;;;;;;;1.00;1.00;;;4.20;99.90;;;;;;6173165;28;20306;-93
2022/04/09 13:03:32;;;;;;;1.27;1.17;;;4.20;99.90;;;;;;6177983;28;20309;-93
2022/04/09 13:06:40;;;;;;;1.10;1.10;;;4.10;99.90;;;;;;6150727;28;20579;-91
2022/04/09 13:09:47;;;;;;;1.40;1.30;;;4.00;99.90;;;;;;6149536;29;20312;-91
2022/04/09 13:16:13;;;;;;;1.20;1.20;;;4.10;99.90;;;;;;6149531;29;20272;-92
2022/04/09 13:22:43;;;;;;;1.13;1.13;;;3.90;99.90;;;;;;6148838;29;20421;-90
2022/04/09 13:25:49;;;;;;;1.37;1.37;;;3.90;99.90;;;;;;6133888;29;20290;-92
2022/04/09 13:29:00;;;;;;;1.10;1.10;;;4.00;99.90;;;;;;6149546;29;20306;-92
2022/04/09 13:32:09;;;;;;;1.00;1.00;;;4.10;99.90;;;;;;6151024;28;20273;-91
2022/04/09 13:35:17;;;;;;;1.00;1.00;;;4.00;99.90;;;;;;6192172;28;20301;-94
2022/04/09 13:38:25;;;;;;;0.90;0.90;;;4.00;99.90;;;;;;6177896;28;20295;-92
2022/04/09 13:41:32;;;;;;;1.20;1.10;;;3.90;99.90;;;;;;6194401;28;20279;-93
2022/04/09 13:44:39;;;;;;;1.10;1.10;;;4.00;99.90;;;;;;6193848;28;20689;-92
2022/04/09 13:47:52;;;;;;;0.97;0.97;;;4.00;99.90;;;;;;6162158;28;20483;-91
2022/04/09 13:50:59;;;;;;;1.10;1.10;;;4.20;99.90;;;;;;6163951;28;20286;-93
2022/04/09 13:54:07;;;;;;;1.00;1.00;;;4.10;99.90;;;;;;6193185;28;20314;-93
2022/04/09 13:57:15;;;;;;;1.00;1.00;;;4.20;99.90;;;;;;6195264;28;20280;-92
2022/04/09 14:00:21;;;;;;;1.00;1.00;;;4.20;99.90;;;;;;6162354;28;20305;-92
2022/04/09 14:03:29;;;;;;;1.00;1.00;;;4.30;99.90;;;;;;6183906;28;20307;-93
2022/04/09 14:09:58;;;;;;;1.00;1.00;;;4.30;99.90;;;;;;6173901;28;20307;-90
2022/04/09 14:13:05;;;;;;;1.00;1.00;;;4.30;99.90;;;;;;6183597;28;20591;-92
2022/04/09 14:16:14;;;;;;;0.90;0.90;;;4.30;99.90;;;;;;6201973;28;20272;-92
2022/04/09 14:19:22;;;;;;;1.33;1.20;;;4.40;99.90;;;;;;6202607;28;20290;-93
2022/04/09 14:22:30;;;;;;;1.00;1.00;;;4.30;99.90;;;;;;6204061;28;20301;-90
2022/04/09 14:25:37;;;;;;;1.10;1.10;;;4.30;99.90;;;;;;6161483;28;20278;-89
2022/04/09 14:28:44;;;;;;;1.00;1.00;;;4.40;99.90;;;;;;6225942;28;20300;-92
2022/04/09 14:31:50;;;;;;;1.10;1.10;;;4.50;99.90;;;;;;6199604;28;20226;-90
2022/04/09 14:35:00;;;;;;;1.23;1.23;;;4.40;99.90;;;;;;6174491;28;20252;-91
2022/04/09 14:38:09;;;;;;;1.60;1.00;;;4.40;99.90;;;;;;6173711;28;20238;-89
2022/04/09 14:41:33;;;;;;;1.80;1.00;;;4.40;99.90;;;;;;6187822;28;20255;-90
2022/04/09 14:44:42;;;;;;;1.53;1.03;;;4.50;99.90;;;;;;6146116;28;20302;-91
2022/04/09 14:47:51;;;;;;;1.00;1.00;;;4.60;99.90;;;;;;6159418;28;20263;-92
2022/04/09 14:50:59;;;;;;;1.00;1.00;;;4.60;99.90;;;;;;6162181;28;20279;-93
2022/04/09 14:54:06;;;;;;;1.13;1.03;;;4.70;99.90;;;;;;6160998;28;20321;-93
2022/04/09 14:57:20;;;;;;;1.00;1.00;;;4.70;99.90;;;;;;6175910;28;20271;-93
2022/04/09 15:00:31;;;;;;;1.00;1.00;;;4.80;99.90;;;;;;6177213;28;20301;-91
2022/04/09 15:03:38;;;;;;;3.50;1.20;;;4.70;99.90;;;;;;6176207;28;20562;-91
2022/04/09 15:06:46;;;;;;;1.10;1.10;;;4.70;99.90;;;;;;6168287;28;20309;-92
2022/04/09 15:09:55;;;;;;;1.00;1.00;;;4.60;99.90;;;;;;6150447;29;20592;-92
2022/04/09 15:13:08;;;;;;;1.10;1.10;;;4.60;99.90;;;;;;6136474;28;20307;-91
2022/04/09 15:16:15;;;;;;;1.20;1.20;;;4.60;99.90;;;;;;6136464;29;20276;-91
2022/04/09 15:19:22;;;;;;;1.30;1.30;;;4.60;99.90;;;;;;6120509;29;20296;-91
2022/04/09 15:22:28;;;;;;;0.90;0.90;;;4.60;99.90;;;;;;6121189;29;20280;-90
2022/04/09 15:25:35;;;;;;;1.00;1.00;;;4.70;99.90;;;;;;6150537;29;20283;-92
2022/04/09 15:28:43;;;;;;;1.17;1.17;;;4.60;99.90;;;;;;6135054;29;20303;-90
2022/04/09 15:31:57;;;;;;;0.97;0.97;;;4.40;99.90;;;;;;6138332;29;20272;-92
2022/04/09 15:35:04;;;;;;;1.10;1.10;;;4.40;99.90;;;;;;6150965;29;20305;-91
2022/04/09 15:38:17;;;;;;;1.20;1.20;;;4.40;99.90;;;;;;6150924;29;20300;-91
2022/04/09 15:41:24;;;;;;;1.20;1.20;;;4.40;99.90;;;;;;6119943;29;20288;-91
2022/04/09 15:44:35;;;;;;;1.00;1.00;;;4.30;99.90;;;;;;6136565;29;20297;-92
2022/04/09 15:47:43;;;;;;;1.20;1.10;;;4.40;99.90;;;;;;6118643;29;20468;-92
2022/04/09 15:50:50;;;;;;;1.30;1.30;;;4.40;99.90;;;;;;6151553;29;20304;-93
2022/04/09 15:53:58;;;;;;;1.20;1.20;;;4.40;99.90;;;;;;6134595;29;20386;-93
2022/04/09 15:57:12;;;;;;;1.30;1.30;;;4.40;99.90;;;;;;6121710;28;20290;-91
2022/04/09 16:00:21;;;;;;;1.37;1.30;;;4.30;99.90;;;;;;6166174;28;20305;-91
2022/04/09 16:03:29;;;;;;;1.17;1.17;;;4.30;99.90;;;;;;6150644;29;20334;-91
2022/04/09 16:06:37;;;;;;;1.20;1.20;;;4.30;99.90;;;;;;6149874;28;20304;-92
2022/04/09 16:09:44;;;;;;;1.10;1.10;;;4.20;99.90;;;;;;6134541;29;20312;-91
2022/04/09 16:12:51;;;;;;;1.30;1.30;;;4.30;99.90;;;;;;6149882;29;20581;-91
2022/04/09 16:15:59;;;;;;;1.20;1.20;;;4.20;99.90;;;;;;6121145;29;20282;-92
2022/04/09 16:19:06;;;;;;;1.20;1.20;;;4.30;99.90;;;;;;6139557;29;20298;-91
2022/04/09 16:22:15;;;;;;;1.20;1.20;;;4.30;99.90;;;;;;6141344;29;20273;-92
2022/04/09 16:25:25;;;;;;;1.50;1.40;;;4.30;99.90;;;;;;6138997;29;20295;-90
2022/04/09 16:28:31;;;;;;;1.37;1.37;;;4.20;99.90;;;;;;6121783;29;20349;-91
2022/04/09 16:31:41;;;;;;;1.30;1.30;;;4.20;99.90;;;;;;6166670;28;20231;-90
2022/04/09 16:34:47;;;;;;;1.30;1.30;;;4.20;99.90;;;;;;6146777;28;20331;-90
2022/04/09 16:37:56;;;;;;;1.40;1.40;;;4.10;99.90;;;;;;6162517;28;20305;-90
2022/04/09 16:44:41;;;;;;;1.40;1.33;;;4.00;99.90;;;;;;6174279;28;20314;-89
2022/04/09 16:47:51;;;;;;;1.40;1.30;;;4.00;99.90;;;;;;6189079;28;20579;-91
2022/04/09 16:50:58;;;;;;;1.40;1.30;;;3.90;99.90;;;;;;6173626;28;20296;-94